Time;durP1;ratioP1;P1;durP2;ratioP2;P2;SDS_P1;SDS_P2;PMS_P1;PMS_P2;Temp;Humidity;BMP_temperature;BMP_pressure;BME280_temperature;BME280_humidity;BME280_pressure;Samples;Min_cycle;Max_cycle;Signal;HPM_P1;HPM_P2
2022/07/31 00:00:18;;;;;;;14.83;12.33;;;;;;;19.80;69.19;101398.81;5060608;28;20416;-64
2022/07/31 00:02:43;;;;;;;17.30;12.17;;;;;;;19.85;68.60;101398.75;5060837;28;20451;-65
2022/07/31 00:05:09;;;;;;;15.53;11.50;;;;;;;20.10;68.39;101388.53;5060910;28;20408;-65
2022/07/31 00:07:34;;;;;;;21.47;19.33;;;;;;;20.16;67.77;101388.44;5060643;28;20189;-65
2022/07/31 00:09:59;;;;;;;19.63;13.37;;;;;;;20.11;68.45;101386.78;5060386;28;20185;-65
2022/07/31 00:12:25;;;;;;;13.30;12.10;;;;;;;19.95;68.12;101388.84;5060827;28;20248;-65
2022/07/31 00:14:50;;;;;;;15.37;13.27;;;;;;;19.94;68.66;101385.31;5060229;28;20223;-65
2022/07/31 00:17:15;;;;;;;15.00;13.40;;;;;;;20.02;68.13;101387.81;5060308;28;20176;-66
2022/07/31 00:19:41;;;;;;;14.27;12.83;;;;;;;19.80;69.11;101388.22;5060605;28;20631;-65
2022/07/31 00:22:06;;;;;;;14.40;13.00;;;;;;;19.91;68.96;101385.38;5060261;28;20244;-65
2022/07/31 00:24:32;;;;;;;18.47;13.00;;;;;;;19.70;69.68;101394.56;5060396;28;20166;-65
2022/07/31 00:26:58;;;;;;;19.77;15.07;;;;;;;19.52;70.55;101387.81;5060872;28;20161;-65
2022/07/31 00:29:24;;;;;;;17.40;14.13;;;;;;;19.71;69.79;101393.66;5059593;28;20165;-65
2022/07/31 00:31:49;;;;;;;16.90;15.10;;;;;;;20.06;68.96;101384.22;5060078;28;20383;-64
2022/07/31 00:34:15;;;;;;;17.97;16.07;;;;;;;20.00;69.41;101384.34;5060277;28;20435;-66
2022/07/31 00:36:41;;;;;;;19.33;16.80;;;;;;;19.61;69.94;101387.66;5060130;28;20170;-65
2022/07/31 00:39:07;;;;;;;16.80;15.30;;;;;;;20.00;68.96;101377.28;5060051;28;20481;-65
2022/07/31 00:41:38;;;;;;;26.23;15.93;;;;;;;19.95;69.29;101367.69;5060456;28;20666;-65
2022/07/31 00:44:04;;;;;;;18.40;16.70;;;;;;;19.74;70.10;101372.44;5060080;28;20408;-64
2022/07/31 00:46:30;;;;;;;17.50;15.90;;;;;;;20.07;68.72;101375.38;5059649;28;20423;-64
2022/07/31 00:48:55;;;;;;;16.30;14.80;;;;;;;20.05;68.81;101374.53;5059278;28;20821;-66
2022/07/31 00:51:20;;;;;;;16.67;14.80;;;;;;;19.98;68.53;101367.63;5059717;28;20166;-64
2022/07/31 00:53:45;;;;;;;16.20;14.60;;;;;;;20.12;68.20;101362.03;5059460;28;20225;-66
2022/07/31 00:56:11;;;;;;;15.77;14.17;;;;;;;19.79;69.45;101359.97;5060142;28;20189;-63
2022/07/31 00:58:36;;;;;;;16.87;15.30;;;;;;;19.66;70.26;101367.28;5059558;28;20174;-64
2022/07/31 01:01:02;;;;;;;15.53;14.10;;;;;;;20.05;68.82;101360.44;5059580;28;20235;-65
2022/07/31 01:03:27;;;;;;;15.90;14.40;;;;;;;20.26;67.77;101348.53;5060119;28;20198;-65
2022/07/31 01:05:52;;;;;;;15.93;14.27;;;;;;;19.71;68.99;101351.31;5059354;28;20211;-66
2022/07/31 01:08:18;;;;;;;16.13;14.50;;;;;;;19.84;68.63;101347.56;5059666;28;20170;-65
2022/07/31 01:10:53;;;;;;;15.33;13.83;;;;;;;19.71;69.74;101353.09;5059761;28;20423;-65
2022/07/31 01:13:24;;;;;;;16.63;15.03;;;;;;;19.36;70.81;101355.47;5059447;28;20172;-64
2022/07/31 01:15:50;;;;;;;17.10;15.40;;;;;;;19.44;70.45;101353.56;5059230;28;20440;-64
2022/07/31 01:18:16;;;;;;;16.23;14.80;;;;;;;19.46;70.93;101356.22;5058477;28;20462;-65
2022/07/31 01:20:43;;;;;;;16.97;14.93;;;;;;;19.79;69.14;101356.47;5059348;28;20439;-65
2022/07/31 01:23:26;;;;;;;16.63;14.97;;;;;;;19.72;69.28;101362.78;5058735;28;20573;-64
2022/07/31 01:26:03;;;;;;;18.77;14.80;;;;;;;19.82;68.92;101354.69;5059011;28;20473;-65
2022/07/31 01:28:37;;;;;;;15.60;14.00;;;;;;;19.85;69.40;101353.75;5060424;28;20903;-65
2022/07/31 01:31:09;;;;;;;15.47;13.97;;;;;;;19.93;69.03;101362.41;5061438;28;20384;-65
2022/07/31 01:33:40;;;;;;;16.40;14.73;;;;;;;19.74;69.83;101353.03;5059015;28;20393;-66
2022/07/31 01:36:08;;;;;;;17.70;14.73;;;;;;;19.81;69.37;101352.94;5058182;28;20766;-65
2022/07/31 01:38:37;;;;;;;15.70;14.10;;;;;;;19.74;69.55;101350.41;5058119;28;20404;-65
2022/07/31 01:41:05;;;;;;;16.80;15.13;;;;;;;19.73;69.39;101353.94;5058960;28;20817;-65
2022/07/31 01:43:41;;;;;;;15.50;13.90;;;;;;;19.81;69.09;101352.94;5059221;28;20462;-65
2022/07/31 01:46:12;;;;;;;15.17;13.20;;;;;;;19.77;69.23;101353.88;5058367;28;20382;-65
2022/07/31 01:48:37;;;;;;;16.87;15.20;;;;;;;19.28;70.37;101363.56;5058119;28;20412;-64
2022/07/31 01:51:04;;;;;;;16.20;14.63;;;;;;;19.82;69.14;101359.97;5057947;28;20847;-64
2022/07/31 01:53:30;;;;;;;17.97;16.07;;;;;;;19.63;69.48;101363.81;5057558;28;20225;-64
2022/07/31 01:55:56;;;;;;;17.43;15.20;;;;;;;19.67;69.54;101363.75;5058173;28;20424;-64
2022/07/31 01:58:23;;;;;;;18.03;15.90;;;;;;;19.54;69.57;101359.59;5057662;28;20166;-65
2022/07/31 02:00:50;;;;;;;17.53;15.60;;;;;;;19.28;70.63;101358.25;5057358;28;20375;-65
2022/07/31 02:03:16;;;;;;;19.23;17.30;;;;;;;19.46;70.32;101354.41;5058315;28;20426;-64
2022/07/31 02:05:42;;;;;;;17.83;15.97;;;;;;;19.52;70.41;101345.50;5057360;28;20425;-64
2022/07/31 02:08:08;;;;;;;18.23;16.53;;;;;;;19.23;71.09;101348.63;5057606;28;20169;-64
2022/07/31 02:10:35;;;;;;;24.97;19.47;;;;;;;19.12;71.26;101336.50;5058117;28;20442;-64
2022/07/31 02:13:01;;;;;;;21.67;19.30;;;;;;;19.40;71.10;101349.22;5057295;28;20424;-65
2022/07/31 02:15:27;;;;;;;22.57;20.03;;;;;;;19.04;72.15;101341.03;5057875;28;20408;-65
2022/07/31 02:17:53;;;;;;;19.40;17.60;;;;;;;19.13;72.21;101343.53;5057691;28;20374;-65
2022/07/31 02:20:19;;;;;;;21.47;19.17;;;;;;;19.25;71.73;101341.56;5057185;28;20806;-64
2022/07/31 02:22:44;;;;;;;20.80;18.40;;;;;;;19.25;72.13;101342.44;5057854;28;20210;-64
2022/07/31 02:25:10;;;;;;;22.20;18.40;;;;;;;19.16;71.87;101343.47;5058314;28;20165;-64
2022/07/31 02:27:38;;;;;;;19.93;18.13;;;;;;;19.24;71.40;101340.72;5057954;28;20189;-64
2022/07/31 02:30:04;;;;;;;19.33;17.43;;;;;;;19.31;71.04;101341.47;5057095;28;20259;-65
2022/07/31 02:32:31;;;;;;;20.27;18.23;;;;;;;19.35;71.14;101336.09;5057789;28;20432;-64
2022/07/31 02:34:58;;;;;;;21.20;19.00;;;;;;;19.27;71.36;101345.06;5056919;28;20462;-64
2022/07/31 02:37:24;;;;;;;20.67;18.57;;;;;;;19.31;71.11;101330.91;5057011;28;20470;-64
2022/07/31 02:39:52;;;;;;;18.77;17.00;;;;;;;19.20;71.55;101344.31;5057661;28;20408;-65
2022/07/31 02:42:18;;;;;;;20.73;18.60;;;;;;;19.01;72.42;101341.06;5057016;28;20475;-64
2022/07/31 02:44:44;;;;;;;21.13;17.80;;;;;;;18.91;72.93;101332.41;5056915;28;20393;-65
2022/07/31 02:47:10;;;;;;;21.23;18.87;;;;;;;19.09;72.49;101328.63;5058161;28;20415;-65
2022/07/31 02:49:36;;;;;;;20.43;18.40;;;;;;;19.19;71.77;101321.41;5057868;28;20442;-65
2022/07/31 02:52:03;;;;;;;21.90;19.63;;;;;;;18.92;72.53;101323.59;5057013;28;20400;-66
2022/07/31 02:54:28;;;;;;;26.50;18.47;;;;;;;19.12;72.39;101322.38;5057577;28;20582;-64
2022/07/31 02:56:54;;;;;;;20.80;18.70;;;;;;;18.82;73.12;101330.78;5057076;28;20461;-65
2022/07/31 02:59:21;;;;;;;20.97;18.90;;;;;;;18.68;73.72;101327.44;5058053;28;20243;-65
2022/07/31 03:01:46;;;;;;;25.00;20.10;;;;;;;18.84;73.47;101326.31;5057655;28;20401;-65
2022/07/31 03:04:11;;;;;;;22.60;20.20;;;;;;;18.94;72.99;101331.50;5057587;28;20411;-65
2022/07/31 03:06:39;;;;;;;24.50;20.27;;;;;;;18.88;72.69;101327.19;5058318;28;20209;-64
2022/07/31 03:09:04;;;;;;;22.50;20.20;;;;;;;18.94;72.87;101332.38;5057831;28;20448;-65
2022/07/31 03:11:30;;;;;;;24.10;21.73;;;;;;;18.88;73.62;101339.50;5058972;28;20178;-64
2022/07/31 03:13:57;;;;;;;24.70;21.93;;;;;;;18.40;75.07;101337.53;5061294;28;20458;-64
2022/07/31 03:16:23;;;;;;;24.40;21.93;;;;;;;18.74;74.86;101331.75;5060786;28;20415;-64
2022/07/31 03:18:48;;;;;;;23.97;21.57;;;;;;;18.86;74.46;101323.66;5060650;28;20423;-64
2022/07/31 03:21:14;;;;;;;23.30;20.97;;;;;;;18.74;74.61;101331.75;5061998;28;20252;-64
2022/07/31 03:23:39;;;;;;;25.23;22.63;;;;;;;18.79;74.60;101328.16;5060604;28;20304;-64
2022/07/31 03:26:05;;;;;;;27.73;23.57;;;;;;;18.95;73.64;101322.69;5061395;28;20611;-65
2022/07/31 03:28:33;;;;;;;25.27;22.13;;;;;;;18.92;73.89;101325.38;5061879;28;20558;-65
2022/07/31 03:30:58;;;;;;;24.63;22.23;;;;;;;18.80;74.36;101326.41;5061336;28;20418;-64
2022/07/31 03:33:24;;;;;;;24.37;22.17;;;;;;;18.80;74.33;101324.63;5061242;28;20526;-64
2022/07/31 03:35:49;;;;;;;30.40;24.70;;;;;;;18.73;74.51;101317.69;5061577;28;20235;-64
2022/07/31 03:38:15;;;;;;;25.57;23.00;;;;;;;18.91;74.20;101318.34;5061031;28;20491;-64
2022/07/31 03:40:40;;;;;;;26.90;22.23;;;;;;;18.79;74.53;101316.72;5061223;28;20178;-64
2022/07/31 03:43:06;;;;;;;25.03;22.43;;;;;;;18.77;74.84;101314.09;5060931;28;20197;-64
2022/07/31 03:45:33;;;;;;;25.23;22.53;;;;;;;19.07;73.79;101318.97;5060943;28;20170;-64
2022/07/31 03:47:58;;;;;;;24.40;22.03;;;;;;;18.60;75.06;101316.13;5060387;28;20166;-64
2022/07/31 03:50:24;;;;;;;24.20;21.70;;;;;;;18.78;74.67;101312.31;5060689;28;20760;-65
2022/07/31 03:52:50;;;;;;;25.00;22.43;;;;;;;18.73;74.58;101311.56;5060735;28;20318;-65
2022/07/31 03:55:15;;;;;;;26.10;22.60;;;;;;;18.56;75.34;101317.06;5060060;28;20203;-64
2022/07/31 03:57:41;;;;;;;23.87;21.47;;;;;;;18.85;74.79;101312.22;5061244;28;20173;-63
2022/07/31 04:00:08;;;;;;;27.47;24.60;;;;;;;18.81;74.47;101305.25;5060668;28;20227;-64
2022/07/31 04:02:33;;;;;;;24.63;21.97;;;;;;;18.96;74.38;101313.88;5059838;28;20952;-64
2022/07/31 04:04:59;;;;;;;23.30;21.07;;;;;;;18.84;74.11;101321.03;5061016;28;20450;-65
2022/07/31 04:07:24;;;;;;;22.47;20.07;;;;;;;18.98;73.78;101320.88;5060652;28;20169;-63
2022/07/31 04:09:50;;;;;;;23.60;21.13;;;;;;;18.95;73.93;101323.53;5060436;28;20445;-64
2022/07/31 04:12:15;;;;;;;25.63;22.60;;;;;;;18.83;74.54;101326.34;5064622;28;20219;-64
2022/07/31 04:14:41;;;;;;;24.20;21.00;;;;;;;18.85;73.90;101325.44;5063517;28;20203;-64
2022/07/31 04:17:06;;;;;;;23.27;20.20;;;;;;;19.46;72.57;101322.69;5060573;28;20173;-64
2022/07/31 04:19:31;;;;;;;23.30;20.87;;;;;;;20.51;68.35;101322.38;5060874;28;20170;-64
2022/07/31 04:21:57;;;;;;;20.80;18.73;;;;;;;20.79;67.08;101317.34;5059952;28;20193;-65
2022/07/31 04:24:23;;;;;;;20.57;17.90;;;;;;;21.08;65.29;101315.78;5059287;28;20545;-65
2022/07/31 04:26:49;;;;;;;17.53;15.93;;;;;;;21.03;64.80;101310.56;5060655;28;20477;-65
2022/07/31 04:29:15;;;;;;;17.97;16.37;;;;;;;21.69;63.34;101310.66;5060321;28;20266;-65
2022/07/31 04:31:40;;;;;;;15.97;14.53;;;;;;;21.44;63.13;101323.69;5059495;28;20753;-65
2022/07/31 04:34:05;;;;;;;17.73;16.10;;;;;;;22.46;60.59;101317.31;5062317;28;20170;-64
2022/07/31 04:36:31;;;;;;;16.80;15.37;;;;;;;22.91;58.42;101323.88;5060233;28;20212;-65
2022/07/31 04:38:57;;;;;;;15.53;13.90;;;;;;;23.66;56.17;101323.13;5060075;28;20535;-64
2022/07/31 04:41:23;;;;;;;18.60;15.53;;;;;;;22.48;59.55;101321.66;5060501;28;20177;-65
2022/07/31 04:43:48;;;;;;;17.00;14.70;;;;;;;21.19;63.28;101329.63;5059695;28;20460;-65
2022/07/31 04:46:13;;;;;;;16.70;15.20;;;;;;;20.81;65.17;101328.78;5059824;28;20434;-65
2022/07/31 04:48:39;;;;;;;18.00;16.40;;;;;;;20.19;67.09;101327.47;5060167;28;20233;-66
2022/07/31 04:51:04;;;;;;;19.17;17.37;;;;;;;20.00;68.25;101331.41;5059896;28;20201;-65
2022/07/31 04:53:30;;;;;;;18.27;16.57;;;;;;;20.02;68.64;101321.66;5059418;28;20237;-65
2022/07/31 04:58:39;;;;;;;21.50;18.30;;;;;;;19.87;69.94;101324.63;5060138;28;20192;-64
2022/07/31 05:01:05;;;;;;;19.07;17.37;;;;;;;20.06;68.55;101322.47;5059879;28;20797;-65
2022/07/31 05:03:30;;;;;;;19.63;17.60;;;;;;;20.44;67.37;101321.63;5059394;28;20284;-65
2022/07/31 05:05:55;;;;;;;18.97;17.17;;;;;;;21.19;64.98;101319.03;5059404;28;20212;-64
2022/07/31 05:08:21;;;;;;;18.80;16.93;;;;;;;20.98;65.85;101322.19;5059908;28;20169;-64
2022/07/31 05:13:30;;;;;;;19.10;17.10;;;;;;;20.60;65.72;101332.75;5058023;28;20192;-69
2022/07/31 05:15:55;;;;;;;18.13;16.20;;;;;;;20.32;66.64;101332.50;5058929;28;20420;-66
2022/07/31 05:18:21;;;;;;;19.60;17.87;;;;;;;20.35;67.27;101324.50;5059097;28;20203;-68
2022/07/31 05:20:47;;;;;;;20.27;17.50;;;;;;;19.87;68.84;101324.63;5059468;28;20527;-67
2022/07/31 05:23:12;;;;;;;18.60;16.90;;;;;;;20.60;67.00;101313.38;5058891;28;20246;-66
2022/07/31 05:25:37;;;;;;;19.30;17.30;;;;;;;20.43;66.64;101319.03;5058957;28;20535;-66
2022/07/31 05:28:03;;;;;;;19.73;17.73;;;;;;;20.49;66.94;101314.47;5059382;28;20170;-67
2022/07/31 05:30:28;;;;;;;20.67;18.70;;;;;;;21.60;63.18;101300.28;5059079;28;20483;-66
2022/07/31 05:32:54;;;;;;;19.47;17.70;;;;;;;21.84;61.71;101309.34;5059052;28;20184;-67
2022/07/31 05:35:19;;;;;;;16.40;14.90;;;;;;;24.14;56.16;101292.09;5058760;28;20174;-67
2022/07/31 05:37:46;;;;;;;16.20;14.80;;;;;;;24.00;54.74;101304.16;5058795;28;20221;-66
2022/07/31 05:40:11;;;;;;;18.27;15.57;;;;;;;25.30;50.84;101296.31;5058828;28;20813;-66
2022/07/31 05:42:37;;;;;;;15.63;14.13;;;;;;;25.19;51.01;101293.22;5059124;28;20200;-68
2022/07/31 05:45:02;;;;;;;16.33;14.37;;;;;;;26.35;48.11;101283.56;5058614;28;20434;-67
2022/07/31 05:47:27;;;;;;;14.83;13.47;;;;;;;25.61;48.67;101283.44;5058931;28;20177;-67
2022/07/31 05:49:53;;;;;;;13.30;11.13;;;;;;;27.65;43.41;101282.41;5058934;28;20166;-67
2022/07/31 05:52:18;;;;;;;10.57;9.53;;;;;;;25.44;48.96;101290.38;5058467;28;20654;-66
2022/07/31 05:54:44;;;;;;;11.10;10.10;;;;;;;24.68;50.84;101292.66;5058212;28;20229;-66
2022/07/31 05:57:10;;;;;;;11.40;10.40;;;;;;;24.05;52.49;101293.31;5058896;28;20173;-67
2022/07/31 05:59:35;;;;;;;12.97;11.60;;;;;;;24.33;52.38;101300.25;5058437;28;20843;-65
2022/07/31 06:02:00;;;;;;;15.50;12.90;;;;;;;22.58;56.39;101306.31;5058279;28;20165;-66
2022/07/31 06:04:26;;;;;;;14.37;12.50;;;;;;;22.81;56.83;101308.25;5058671;28;20173;-67
2022/07/31 06:06:51;;;;;;;13.20;11.90;;;;;;;23.75;54.17;101309.50;5058091;28;20299;-68
2022/07/31 06:09:16;;;;;;;12.67;11.03;;;;;;;23.43;54.78;101316.81;5058246;28;20257;-67
2022/07/31 06:11:42;;;;;;;11.67;9.87;;;;;;;23.00;55.82;101307.63;5058645;28;20180;-67
2022/07/31 06:14:08;;;;;;;13.37;12.10;;;;;;;22.66;57.06;101314.03;5058179;28;20227;-67
2022/07/31 06:16:33;;;;;;;15.00;13.50;;;;;;;22.50;57.74;101311.00;5058198;28;20433;-67
2022/07/31 06:18:59;;;;;;;14.67;13.10;;;;;;;22.60;56.69;101315.09;5058759;28;20426;-68
2022/07/31 06:21:24;;;;;;;14.67;13.33;;;;;;;22.65;56.96;101307.88;5058078;28;20192;-67
2022/07/31 06:23:50;;;;;;;14.10;12.67;;;;;;;22.19;58.33;101310.13;5057890;28;20355;-67
2022/07/31 06:26:15;;;;;;;13.20;11.80;;;;;;;22.48;57.14;101308.38;5058450;28;20174;-66
2022/07/31 06:28:40;;;;;;;11.87;10.57;;;;;;;23.57;54.09;101303.06;5058062;28;20257;-66
2022/07/31 06:31:06;;;;;;;11.37;10.17;;;;;;;22.49;56.01;101298.66;5058080;28;20441;-66
2022/07/31 06:33:31;;;;;;;11.83;10.53;;;;;;;22.29;57.40;101301.88;5058242;28;20192;-68
2022/07/31 06:35:57;;;;;;;11.03;9.93;;;;;;;22.76;55.67;101293.34;5057949;28;20173;-67
2022/07/31 06:38:23;;;;;;;9.27;8.43;;;;;;;22.76;55.23;101299.53;5058019;28;20618;-70
2022/07/31 06:40:49;;;;;;;10.73;9.53;;;;;;;22.50;56.40;101301.25;5058484;28;20177;-67
2022/07/31 06:43:14;;;;;;;11.73;9.70;;;;;;;22.39;56.51;101306.00;5057715;28;20463;-67
2022/07/31 06:45:41;;;;;;;9.93;8.80;;;;;;;22.09;56.77;101307.78;5057850;28;20463;-66
2022/07/31 06:48:11;;;;;;;9.43;8.50;;;;;;;23.10;54.13;101305.53;5062254;28;20287;-67
2022/07/31 06:50:36;;;;;;;8.20;7.40;;;;;;;22.58;54.39;101308.09;5061917;28;20420;-67
2022/07/31 06:53:01;;;;;;;7.60;6.83;;;;;;;23.36;53.67;101310.00;5063360;28;20548;-67
2022/07/31 06:55:27;;;;;;;8.87;6.57;;;;;;;23.21;52.11;101304.25;5063244;28;20185;-68
2022/07/31 06:57:52;;;;;;;8.27;6.30;;;;;;;22.88;52.29;101303.59;5063313;28;20165;-66
2022/07/31 07:00:19;;;;;;;8.77;7.97;;;;;;;22.92;51.92;101299.03;5061735;28;20197;-67
2022/07/31 07:02:44;;;;;;;9.07;8.27;;;;;;;23.19;51.67;101291.94;5061795;28;20200;-67
2022/07/31 07:05:10;;;;;;;8.93;8.00;;;;;;;23.80;51.36;101288.00;5061351;28;20411;-67
2022/07/31 07:07:35;;;;;;;16.67;9.63;;;;;;;23.13;52.13;101294.81;5061609;28;20503;-69
2022/07/31 07:10:01;;;;;;;11.63;10.50;;;;;;;23.50;52.42;101297.06;5061218;28;20180;-69
2022/07/31 07:12:26;;;;;;;12.27;11.10;;;;;;;23.14;54.23;101291.25;5061598;28;20501;-69
2022/07/31 07:14:52;;;;;;;11.93;10.70;;;;;;;23.80;52.66;101288.00;5061529;28;20248;-64
2022/07/31 07:17:17;;;;;;;11.63;10.43;;;;;;;22.37;57.01;101286.59;5062197;28;20428;-65
2022/07/31 07:19:42;;;;;;;22.13;12.37;;;;;;;22.35;56.97;101288.44;5061420;28;20250;-65
2022/07/31 07:22:08;;;;;;;11.33;10.43;;;;;;;21.72;59.66;101288.47;5061401;28;20219;-65
2022/07/31 07:24:33;;;;;;;11.80;10.73;;;;;;;23.63;54.43;101280.66;5061990;28;20265;-65
2022/07/31 07:26:59;;;;;;;16.03;10.40;;;;;;;23.78;52.06;101282.75;5061408;28;20484;-64
2022/07/31 07:29:24;;;;;;;11.43;10.23;;;;;;;24.77;50.44;101280.78;5061367;28;20173;-65
2022/07/31 07:31:50;;;;;;;10.67;9.57;;;;;;;23.73;53.16;101287.38;5061805;28;20212;-66
2022/07/31 07:34:15;;;;;;;12.83;10.30;;;;;;;24.34;51.17;101275.34;5060974;28;20405;-66
2022/07/31 07:36:41;;;;;;;10.97;9.97;;;;;;;24.31;50.80;101272.78;5061114;28;20188;-66
2022/07/31 07:39:08;;;;;;;12.03;9.37;;;;;;;24.28;50.88;101271.13;5061654;28;20259;-67
2022/07/31 07:41:37;;;;;;;10.33;9.33;;;;;;;24.34;51.35;101272.66;5061114;28;20184;-68
2022/07/31 07:44:03;;;;;;;14.10;10.40;;;;;;;24.30;51.21;101279.94;5060897;28;20748;-66
2022/07/31 07:46:29;;;;;;;10.53;9.67;;;;;;;23.91;51.90;101277.00;5061352;28;20416;-67
2022/07/31 07:48:55;;;;;;;16.87;9.10;;;;;;;23.83;52.20;101280.78;5060778;28;20419;-67
2022/07/31 07:51:21;;;;;;;11.17;8.57;;;;;;;23.53;52.74;101273.00;5060803;28;20197;-68
2022/07/31 07:53:46;;;;;;;9.60;8.33;;;;;;;23.10;53.39;101279.81;5060668;28;20489;-67
2022/07/31 07:56:12;;;;;;;9.93;8.10;;;;;;;24.23;50.85;101278.41;5060677;28;20523;-67
2022/07/31 07:58:37;;;;;;;7.67;6.90;;;;;;;23.82;50.68;101267.53;5060521;28;20295;-67
2022/07/31 08:01:03;;;;;;;8.43;7.40;;;;;;;22.13;53.37;101277.56;5054497;28;20490;-67
2022/07/31 08:03:28;;;;;;;8.07;6.93;;;;;;;23.74;50.20;101270.47;5047359;28;20356;-67
2022/07/31 08:05:53;;;;;;;8.50;6.83;;;;;;;23.78;49.96;101269.44;5055553;28;20178;-67
2022/07/31 08:08:19;;;;;;;7.47;6.53;;;;;;;24.02;48.61;101272.16;5060322;28;20612;-67
2022/07/31 08:10:44;;;;;;;6.80;6.10;;;;;;;23.71;49.38;101271.47;5040541;28;20470;-67
2022/07/31 08:13:09;;;;;;;7.20;6.53;;;;;;;24.28;47.71;101265.78;5040927;28;20193;-67
2022/07/31 08:15:35;;;;;;;8.73;5.60;;;;;;;24.61;47.25;101260.03;5040283;28;20174;-66
2022/07/31 08:18:00;;;;;;;7.13;6.30;;;;;;;24.12;48.62;101276.16;5050513;28;20261;-67
2022/07/31 08:20:26;;;;;;;8.30;5.90;;;;;;;24.10;49.21;101274.50;5060835;28;20172;-65
2022/07/31 08:22:52;;;;;;;6.53;5.93;;;;;;;23.53;50.62;101274.81;5060306;28;20287;-66
2022/07/31 08:25:17;;;;;;;7.70;5.77;;;;;;;23.70;50.93;101272.38;5060217;28;20252;-67
2022/07/31 08:27:43;;;;;;;7.53;6.80;;;;;;;24.00;51.25;101269.53;5060787;28;20170;-66
2022/07/31 08:30:09;;;;;;;6.40;5.80;;;;;;;23.85;50.77;101270.06;5060170;28;20557;-67
2022/07/31 08:32:34;;;;;;;6.27;5.67;;;;;;;24.25;49.19;101273.03;5059954;28;20178;-67
2022/07/31 08:35:00;;;;;;;5.70;5.30;;;;;;;24.44;49.05;101274.03;5060030;28;20733;-66
2022/07/31 08:37:25;;;;;;;5.93;5.43;;;;;;;24.31;49.33;101268.31;5059946;28;20181;-67
2022/07/31 08:39:51;;;;;;;6.10;5.03;;;;;;;24.18;48.71;101272.41;5059919;28;20177;-66
2022/07/31 08:42:17;;;;;;;5.67;5.07;;;;;;;24.84;47.12;101272.47;5060479;28;20189;-65
2022/07/31 08:44:43;;;;;;;7.00;5.00;;;;;;;25.21;46.11;101268.22;5060072;28;20169;-67
2022/07/31 08:47:10;;;;;;;8.30;5.40;;;;;;;24.82;46.98;101266.31;5059883;28;20409;-66
2022/07/31 08:49:40;;;;;;;5.43;4.93;;;;;;;24.62;46.72;101269.78;5060126;28;20450;-67
2022/07/31 08:52:10;;;;;;;8.43;4.93;;;;;;;24.46;46.59;101271.31;5060038;28;20420;-66
2022/07/31 08:54:36;;;;;;;12.00;5.50;;;;;;;24.99;46.06;101262.94;5059368;28;20452;-66
2022/07/31 08:57:03;;;;;;;6.00;5.40;;;;;;;24.97;46.31;101261.28;5058868;28;20424;-66
2022/07/31 08:59:28;;;;;;;5.13;4.50;;;;;;;24.89;46.03;101265.09;5059699;28;20461;-66
2022/07/31 09:01:55;;;;;;;5.17;4.73;;;;;;;24.46;45.44;101263.31;5059733;28;20440;-68
2022/07/31 09:04:24;;;;;;;8.73;4.80;;;;;;;24.43;45.79;101264.31;5059519;28;20457;-69
2022/07/31 09:06:49;;;;;;;4.80;4.37;;;;;;;24.26;45.74;101259.66;5059532;28;20683;-66
2022/07/31 09:09:19;;;;;;;7.20;4.90;;;;;;;24.35;45.65;101261.09;5048137;28;20429;-66
2022/07/31 09:11:46;;;;;;;5.53;4.73;;;;;;;24.63;45.28;101244.88;5039307;28;20312;-67
2022/07/31 09:14:12;;;;;;;5.63;4.63;;;;;;;23.94;45.80;101256.44;5038505;28;20413;-67
2022/07/31 09:16:46;;;;;;;5.10;4.20;;;;;;;24.59;44.60;101250.38;5039660;28;20409;-68
2022/07/31 09:19:12;;;;;;;4.60;4.30;;;;;;;24.06;46.27;101249.78;5039114;28;20818;-68
2022/07/31 09:21:39;;;;;;;5.90;4.47;;;;;;;24.05;46.45;101256.03;5046500;28;20472;-68
2022/07/31 09:24:06;;;;;;;4.87;4.30;;;;;;;24.24;46.52;101244.66;5058782;28;20471;-69
2022/07/31 09:26:33;;;;;;;4.93;4.53;;;;;;;24.44;45.55;101236.75;5059233;28;20419;-67
2022/07/31 09:28:59;;;;;;;5.40;4.67;;;;;;;24.13;45.42;101232.63;5059375;28;20677;-66
2022/07/31 09:31:31;;;;;;;6.60;5.17;;;;;;;24.34;45.99;101230.91;5059114;28;20412;-65
2022/07/31 09:33:56;;;;;;;5.33;4.80;;;;;;;25.15;43.68;101231.09;5058168;28;20416;-65
2022/07/31 09:36:24;;;;;;;4.80;4.40;;;;;;;25.11;43.96;101220.66;5059700;28;20927;-66
2022/07/31 09:38:50;;;;;;;6.73;4.83;;;;;;;25.33;43.67;101224.13;5059217;28;20440;-64
2022/07/31 09:41:18;;;;;;;4.80;4.40;;;;;;;25.96;41.97;101223.03;5058828;28;20479;-66
2022/07/31 09:43:53;;;;;;;4.97;4.47;;;;;;;25.67;41.85;101219.94;5058844;28;20459;-65
2022/07/31 09:46:19;;;;;;;5.70;4.20;;;;;;;25.34;42.52;101222.31;5058069;28;20411;-66
2022/07/31 09:48:54;;;;;;;4.70;4.20;;;;;;;26.83;40.51;101219.75;5058447;28;20798;-65
2022/07/31 09:51:19;;;;;;;4.73;4.33;;;;;;;27.44;39.10;101221.97;5058678;28;20580;-68
2022/07/31 09:53:56;;;;;;;6.70;4.37;;;;;;;27.12;39.13;101214.69;5058167;28;20452;-67
2022/07/31 09:56:32;;;;;;;4.60;4.13;;;;;;;27.33;38.56;101211.81;5058443;28;20200;-67
2022/07/31 09:58:57;;;;;;;4.97;4.47;;;;;;;27.29;38.48;101202.22;5058487;28;20499;-67
2022/07/31 10:01:23;;;;;;;4.17;3.77;;;;;;;27.85;37.84;101198.28;5058522;28;20470;-68
2022/07/31 10:03:50;;;;;;;4.97;4.43;;;;;;;27.64;37.42;101196.78;5057419;28;20209;-67
2022/07/31 10:06:15;;;;;;;5.13;4.40;;;;;;;27.92;37.29;101196.13;5058087;28;20198;-66
2022/07/31 10:08:43;;;;;;;5.10;4.00;;;;;;;28.03;36.85;101199.09;5058188;28;20537;-66
2022/07/31 10:11:08;;;;;;;4.30;3.90;;;;;;;26.90;39.18;101190.88;5058313;28;20264;-65
2022/07/31 10:13:36;;;;;;;4.27;3.87;;;;;;;26.68;39.38;101201.75;5058681;28;20439;-65
2022/07/31 10:16:03;;;;;;;4.70;3.87;;;;;;;27.05;38.32;101189.22;5058094;28;20261;-67
2022/07/31 10:18:30;;;;;;;6.10;4.67;;;;;;;27.85;37.19;101181.34;5057245;28;20481;-66
2022/07/31 10:20:56;;;;;;;4.33;3.90;;;;;;;27.92;35.53;101179.19;5057174;28;20424;-67
2022/07/31 10:23:22;;;;;;;4.20;3.87;;;;;;;27.29;37.06;101175.44;5057083;28;20468;-67
2022/07/31 10:25:57;;;;;;;5.07;3.90;;;;;;;28.16;36.90;101161.72;5057159;28;20235;-66
2022/07/31 10:28:23;;;;;;;4.30;3.90;;;;;;;28.45;35.89;101163.66;5057270;28;20415;-66
2022/07/31 10:30:49;;;;;;;3.83;3.53;;;;;;;28.82;36.40;101153.44;5057156;28;20480;-66
2022/07/31 10:33:15;;;;;;;5.37;3.77;;;;;;;29.34;32.70;101149.38;5057705;28;20165;-67
2022/07/31 10:35:46;;;;;;;5.00;3.70;;;;;;;28.48;35.18;101159.00;5056889;28;20805;-67
2022/07/31 10:38:22;;;;;;;4.00;3.60;;;;;;;28.50;34.50;101159.75;5057875;28;20535;-66
2022/07/31 10:40:55;;;;;;;7.33;3.37;;;;;;;28.36;35.06;101162.38;5057122;28;20739;-65
2022/07/31 10:43:29;;;;;;;4.93;3.80;;;;;;;29.93;32.74;101151.03;5057203;28;20873;-65
2022/07/31 10:45:55;;;;;;;4.10;3.80;;;;;;;28.09;36.11;101167.53;5057071;28;20860;-65
2022/07/31 10:48:22;;;;;;;5.53;3.60;;;;;;;30.31;32.51;101150.28;5057801;28;20462;-66
2022/07/31 10:51:00;;;;;;;5.10;3.83;;;;;;;29.73;32.36;101153.16;5057920;28;20412;-65
2022/07/31 10:53:25;;;;;;;3.70;3.40;;;;;;;30.39;32.79;101145.25;5057653;28;20463;-66
2022/07/31 10:56:02;;;;;;;5.80;3.70;;;;;;;28.69;34.59;101142.59;5056515;28;20574;-68
2022/07/31 10:58:29;;;;;;;4.60;4.20;;;;;;;28.02;35.52;101142.91;5057653;28;20177;-69
2022/07/31 11:01:05;;;;;;;4.10;3.70;;;;;;;29.22;34.13;101143.78;5057014;28;20439;-67
2022/07/31 11:03:45;;;;;;;4.23;3.83;;;;;;;30.33;32.36;101132.22;5057618;28;20463;-66
2022/07/31 11:06:14;;;;;;;4.00;3.70;;;;;;;28.76;35.12;101135.03;5057726;28;20420;-65
2022/07/31 11:08:42;;;;;;;4.47;3.60;;;;;;;29.57;33.97;101129.97;5057516;28;20436;-65
2022/07/31 11:11:08;;;;;;;4.20;3.80;;;;;;;27.79;35.85;101131.63;5057520;28;20466;-66
2022/07/31 11:13:47;;;;;;;5.73;4.07;;;;;;;29.17;33.89;101124.44;5057528;28;20416;-68
2022/07/31 11:16:12;;;;;;;5.10;3.90;;;;;;;28.97;34.90;101122.09;5057534;28;20434;-68